Portada
METAR-TAF:

METAR-TAF

Aeroports :

Llemotges, França

latitud: 45-52N, longitud: 001-11E, altitud: 396 m

Observació

L'informe es va fer fa 27 minuts, a les 22:30 UTC
Vent calma
Temperatura 24°C
Humitat 41%
Pressió 1018 hPa
Visibilitat 10 km o més
sense núvols per sota de 1500 mi sense presència de cumulonimbus.

METAR: LFBL 242230Z AUTO 00000KT CAVOK 24/10 Q1018 NOSIG

Hora: 00:57 (22:57 UTC)

Pronòstic

L'informe es va fer fa 5 hores i 57 minuts, a les 17:00 UTC
Pronòstic vàlid del 24 a les 18 UTC al 25 a les 18 UTC
Vent 2 kt amb direcció variable
Visibilitat 10 km o més
sense núvols per sota de 1500 mi sense presència de cumulonimbus.
Evolucionant progressivament
l' 25 a les 14 UTC al 25 a les 16 UTC
Vent 6 kt del Oest

TAF: LFBL 241700Z 2418/2518 VRB02KT CAVOK BECMG 2514/2516 27006KT

Observacions i pronòstics meteorològics de més de 4000 aeroports (METAR i TAF).

Les estacions disponibles són els punts grocs i vermells al mapa.

Posi el ratolí al punt desitjat per veure el nom de l'estació.

Feu clic per veure les observacions i els pronòstics meteorològics.

Per canviar el mapa: feu clic els botons verds amb una creu de color negre per apropar; al botó verd amb un guió per allunyar la imatge; o en les fletxes verdes per a mapes adjacents.


METAR-TAF: